Flight Track Log - Related Links

Times and Time Zones

All times are in EDT time to prevent confusion due to time zone crossing. See the AAY829 flight status page for this flight to view local times or setup timezone preferences in your user account.

Time Position Orientation Groundspeed Altitude Reporting Facility
EDT Latitude Longitude Course Direction KTS MPH feet Rate Location/Type
Sat 04:26:14 PM 34.9253 -82.1364 178° South 223 257 3,900  Level Atlanta Center
Sat 04:27:14 PM 34.8458 -82.1331 178° South 219 252 6,700 2,900 Climbing Atlanta Center
Sat 04:28:14 PM 34.7667 -82.1347 181° South 256 295 9,700 2,100 Climbing Atlanta Center
Sat 04:29:14 PM 34.6747 -82.1344 180° South 289 333 10,900 2,450 Climbing Atlanta Center
Sat 04:30:14 PM 34.5767 -82.1367 181° South 330 380 14,600 2,750 Climbing Atlanta Center
Sat 04:31:14 PM 34.4808 -82.1414 182° South 343 395 16,400 1,150 Climbing Atlanta Center
Sat 04:32:14 PM 34.3703 -82.1436 181° South 372 428 16,900 1,050 Climbing Atlanta Center
Sat 04:33:14 PM 34.2639 -82.1536 184° South 389 448 18,500 1,650 Climbing Atlanta Center
Sat 04:34:14 PM 34.1514 -82.1686 186° South 395 455 20,200 1,650 Climbing Atlanta Center
Sat 04:35:14 PM 34.0369 -82.1789 184° South 407 468 21,800 1,550 Climbing Atlanta Center
Sat 04:36:14 PM 33.9203 -82.1914 185° South 412 474 23,300 1,250 Climbing Atlanta Center
Sat 04:37:14 PM 33.8014 -82.2039 185° South 423 487 24,300 1,150 Climbing Atlanta Center
Sat 04:38:14 PM 33.6806 -82.2164 185° South 435 501 25,600 1,250 Climbing Atlanta Center
Sat 04:39:14 PM 33.5556 -82.2292 185° South 440 506 26,800 1,100 Climbing Atlanta Center
Sat 04:40:14 PM 33.4325 -82.2442 186° South 440 506 27,800 1,200 Climbing Atlanta Center
Sat 04:41:14 PM 33.3117 -82.2592 186° South 440 506 29,200 1,350 Climbing Atlanta Center
Sat 04:42:14 PM 33.1908 -82.2714 185° South 440 506 30,500 1,250 Climbing Atlanta Center
Sat 04:43:14 PM 33.0700 -82.2864 186° South 440 506 31,700 1,050 Climbing Atlanta Center
Sat 04:44:14 PM 32.9492 -82.2986 185° South 440 506 32,600 1,100 Climbing Atlanta Center
Sat 04:45:14 PM 32.8303 -82.3108 185° South 440 506 33,900 800 Climbing Atlanta Center
Sat 04:46:14 PM 32.7114 -82.3231 185° South 440 506 34,200 650 Climbing Atlanta Center
Sat 04:47:14 PM 32.5906 -82.3378 186° South 440 506 35,200 684 Climbing Atlanta Center
Sat 04:48:52 PM 32.4158 -82.3561 185° South 430 495 36,000 304 Climbing Jacksonville Center
Sat 04:49:52 PM 32.2992 -82.3667 184° South 424 488 36,000  Level Jacksonville Center
Sat 04:50:52 PM 32.1800 -82.3772 184° South 424 488 36,000  Level Jacksonville Center
Sat 04:51:52 PM 32.0611 -82.3925 186° South 424 488 36,000  Level Jacksonville Center
Sat 04:52:52 PM 31.9339 -82.4053 185° South 424 488 36,000  Level Jacksonville Center
Sat 04:53:52 PM 31.8150 -82.4158 184° South 424 488 36,000  Level Jacksonville Center
Sat 04:54:52 PM 31.6958 -82.4311 186° South 424 488 36,000  Level Jacksonville Center
Sat 04:55:52 PM 31.5750 -82.4414 184° South 430 495 36,000  Level Jacksonville Center
Sat 04:56:52 PM 31.4558 -82.4542 185° South 430 495 36,000 -50 Level Jacksonville Center
Sat 04:57:52 PM 31.3475 -82.4692 187° South 430 495 35,900  Descending Jacksonville Center
Sat 04:58:52 PM 31.2242 -82.4819 185° South 436 502 36,000 50 Climbing Jacksonville Center
Sat 04:59:52 PM 31.1053 -82.4922 184° South 436 502 36,000  Level Jacksonville Center
Sat 05:00:52 PM 30.9822 -82.5072 186° South 442 509 36,000  Level Jacksonville Center
Sat 05:01:52 PM 30.8611 -82.5200 185° South 442 509 36,000  Level Jacksonville Center
Sat 05:02:52 PM 30.7358 -82.5300 184° South 448 516 36,000  Level Jacksonville Center
Sat 05:03:52 PM 30.6128 -82.5475 187° South 448 516 36,000 -200 Level Jacksonville Center
Sat 05:04:52 PM 30.5147 -82.6250 214° Southwest 420 483 35,600 -650 Descending Jacksonville Center
Sat 05:05:52 PM 30.4522 -82.7358 237° Southwest 409 471 34,700 -950 Descending Jacksonville Center
Sat 05:06:52 PM 30.3897 -82.8589 240° Southwest 424 488 33,700 -1,000 Descending Jacksonville Center
Sat 05:07:52 PM 30.3250 -82.9792 238° Southwest 441 507 32,700 -1,000 Descending Jacksonville Center
Sat 05:08:52 PM 30.2581 -83.1019 238° Southwest 447 514 31,700 -950 Descending Jacksonville Center
Sat 05:09:52 PM 30.1931 -83.2147 236° Southwest 447 514 30,800 -1,000 Descending Jacksonville Center
Sat 05:10:52 PM 30.0656 -83.2694 200° South 417 480 29,700 -1,050 Descending Jacksonville Center
Sat 05:11:52 PM 29.9486 -83.3050 195° South 436 502 28,700 -950 Descending Jacksonville Center
Sat 05:12:52 PM 29.8314 -83.3381 194° South 441 507 27,800 -950 Descending Jacksonville Center
Sat 05:13:52 PM 29.7167 -83.3708 194° South 435 501 26,800 -1,000 Descending Jacksonville Center
Sat 05:14:52 PM 29.6017 -83.4036 194° South 435 501 25,800 -1,000 Descending Jacksonville Center
Sat 05:15:52 PM 29.4886 -83.4342 193° South 429 494 24,800 -900 Descending Jacksonville Center
Sat 05:16:52 PM 29.3697 -83.4692 194° South 429 494 24,000 -400 Descending Jacksonville Center
Sat 05:17:52 PM 29.2525 -83.5019 194° South 429 494 24,000 -100 Level Jacksonville Center
Sat 05:18:52 PM 29.1419 -83.4631 163° South 415 478 23,800 -600 Descending Jacksonville Center
Sat 05:19:52 PM 29.0381 -83.3936 150° Southeast 411 473 22,800 -950 Descending Jacksonville Center
Sat 05:20:52 PM 28.9339 -83.3292 152° Southeast 421 484 21,900 -950 Descending Jacksonville Center
Sat 05:21:52 PM 28.8339 -83.2647 151° Southeast 421 484 20,900 -1,400 Descending Jacksonville Center
Sat 05:22:52 PM 28.7339 -83.2028 151° Southeast 416 479 19,100 -1,862 Descending Jacksonville Center
Sat 05:24:17 PM 28.6000 -83.1167 151° Southeast 390 449 16,400 -1,862 Descending Tampa TRACON
Sat 05:25:17 PM 28.5000 -83.0500 150° Southeast 367 422 14,600 -1,762 Descending Tampa TRACON
Sat 05:26:23 PM 28.4167 -83.0000 152° Southeast 364 419 12,700 -1,714 Descending Tampa TRACON
Sat 05:27:23 PM 28.3167 -82.9500 156° South 358 412 11,000 -1,263 Descending Tampa TRACON
Sat 05:28:36 PM 28.2286 -82.9022 154° Southeast 350 403 9,900 -889 Descending Miami Center
Sat 05:29:38 PM 28.1283 -82.8758 167° South 309 356 9,000 -1,210 Descending Miami Center
Sat 05:30:40 PM 28.0492 -82.8561 168° South 296 341 7,400 -1,892 Descending Miami Center
Sat 05:31:29 PM 27.9833 -82.8333 163° South 281 323 5,500 -2,147 Descending Tampa TRACON
Sat 05:32:29 PM 27.9000 -82.8167 170° South 272 313 3,500 -1,444 Descending Tampa TRACON
Sat 05:33:17 PM 27.8667 -82.7833 139° Southeast 242 278 2,900 -632 Descending Tampa TRACON
Sat 05:34:23 PM 27.8167 -82.7333 139° Southeast 208 239 2,300 -545 Descending Tampa TRACON
Sat 05:35:18 PM 27.8167 -82.6833 90° East 184 212 1,800 -737 Descending Tampa TRACON
Sat 05:36:17 PM 27.8500 -82.6833 360° North 128 147 900 -750 Descending Tampa TRACON
Sat 05:37:18 PM 27.8833 -82.6833 360° North 128 147 300 -590 Descending Tampa TRACON

Login

Don't have an account? Register now (free) for customized features, flight alerts, and more!